createdAt,value
2018-10-01T00:00:08.830Z,999.99
2018-10-01T00:01:08.821Z,999.97
2018-10-01T00:02:08.792Z,999.96
2018-10-01T00:03:08.791Z,999.97
2018-10-01T00:04:08.782Z,999.99
2018-10-01T00:05:08.755Z,1000.00
2018-10-01T00:06:08.775Z,1000.02
2018-10-01T00:07:08.728Z,1000.02
2018-10-01T00:08:08.730Z,1000.03
2018-10-01T00:09:08.731Z,1000.02
2018-10-01T00:10:08.686Z,1000.05
2018-10-01T00:11:08.679Z,1000.07
2018-10-01T00:12:08.662Z,1000.01
2018-10-01T00:13:08.640Z,1000.01
2018-10-01T00:14:08.890Z,1000.06
2018-10-01T00:15:08.613Z,1000.04
2018-10-01T00:16:08.605Z,1000.04
2018-10-01T00:17:08.583Z,1000.04
2018-10-01T00:18:08.562Z,1000.04
2018-10-01T00:19:08.579Z,1000.02
2018-10-01T00:20:08.548Z,1000.02
2018-10-01T00:21:08.559Z,1000.06
2018-10-01T00:22:08.511Z,1000.07
2018-10-01T00:23:08.502Z,1000.08
2018-10-01T00:24:08.474Z,1000.07
2018-10-01T00:25:08.475Z,1000.07
2018-10-01T00:26:08.473Z,1000.04
2018-10-01T00:27:08.433Z,1000.02
2018-10-01T00:28:08.429Z,999.98
2018-10-01T00:29:08.405Z,1000.02
2018-10-01T00:30:08.412Z,1000.00
2018-10-01T00:31:08.424Z,1000.02
2018-10-01T00:32:08.364Z,1000.00
2018-10-01T00:33:08.353Z,1000.06
2018-10-01T00:34:08.328Z,1000.04
2018-10-01T00:35:08.333Z,1000.05
2018-10-01T00:36:08.311Z,1000.01
2018-10-01T00:37:08.318Z,1000.03
2018-10-01T00:38:08.281Z,1000.00
2018-10-01T00:39:08.262Z,999.96
2018-10-01T00:40:08.246Z,999.97
2018-10-01T00:41:08.234Z,999.95
2018-10-01T00:42:08.255Z,999.94
2018-10-01T00:43:08.198Z,999.95
2018-10-01T00:44:08.195Z,1000.00
2018-10-01T00:45:08.171Z,999.94
2018-10-01T00:46:08.194Z,999.95
2018-10-01T00:47:08.176Z,999.98
2018-10-01T00:48:08.130Z,999.98
2018-10-01T00:49:08.119Z,999.95
2018-10-01T00:50:08.298Z,999.93
2018-10-01T00:51:08.104Z,999.95
2018-10-01T00:52:08.131Z,999.90
2018-10-01T00:53:08.078Z,999.90
2018-10-01T00:54:08.049Z,999.85
2018-10-01T00:55:08.044Z,999.90
2018-10-01T00:56:08.015Z,999.87
2018-10-01T00:57:07.998Z,999.87
2018-10-01T00:58:07.983Z,999.90
2018-10-01T00:59:07.984Z,999.91
2018-10-01T01:00:07.967Z,999.88
2018-10-01T01:01:07.948Z,999.89
2018-10-01T01:02:07.929Z,999.84
2018-10-01T01:03:07.942Z,999.90
2018-10-01T01:04:07.902Z,999.86
2018-10-01T01:05:07.875Z,999.86
2018-10-01T01:06:07.866Z,999.88
2018-10-01T01:07:07.857Z,999.90
2018-10-01T01:08:07.878Z,999.91
2018-10-01T01:09:07.827Z,999.90
2018-10-01T01:10:07.809Z,999.94
2018-10-01T01:11:07.797Z,999.92
2018-10-01T01:12:07.789Z,999.93
2018-10-01T01:13:07.795Z,999.95
2018-10-01T01:14:07.756Z,999.91
2018-10-01T01:15:07.747Z,999.89
2018-10-01T01:16:07.752Z,999.92
2018-10-01T01:17:07.714Z,999.94
2018-10-01T01:18:07.699Z,999.91
2018-10-01T01:19:07.684Z,999.93
2018-10-01T01:20:07.667Z,999.92
2018-10-01T01:21:07.683Z,999.92
2018-10-01T01:22:07.627Z,999.94
2018-10-01T01:23:07.627Z,999.96
2018-10-01T01:24:07.611Z,999.97
2018-10-01T01:25:07.594Z,999.95
2018-10-01T01:26:07.611Z,999.92
2018-10-01T01:27:07.558Z,999.93
2018-10-01T01:28:07.562Z,999.88
2018-10-01T01:29:07.534Z,999.89
2018-10-01T01:30:07.540Z,999.91
2018-10-01T01:31:07.531Z,999.92
2018-10-01T01:32:07.492Z,999.86
2018-10-01T01:33:07.502Z,999.85
2018-10-01T01:34:07.459Z,999.90
2018-10-01T01:35:07.453Z,999.86
2018-10-01T01:36:07.423Z,999.88
2018-10-01T01:37:07.417Z,999.87
2018-10-01T01:38:07.404Z,999.90
2018-10-01T01:39:07.423Z,999.89
2018-10-01T01:40:07.377Z,999.88
2018-10-01T01:41:07.359Z,999.88
2018-10-01T01:42:07.373Z,999.87
2018-10-01T01:43:07.327Z,999.82
2018-10-01T01:44:07.393Z,999.79
2018-10-01T01:45:07.306Z,999.74
2018-10-01T01:46:07.282Z,999.71
2018-10-01T01:47:07.265Z,999.70
2018-10-01T01:48:07.263Z,999.66
2018-10-01T01:49:07.240Z,999.72
2018-10-01T01:50:07.560Z,999.75
2018-10-01T01:51:07.211Z,999.79
2018-10-01T01:52:07.204Z,999.78
2018-10-01T01:53:07.175Z,999.76
2018-10-01T01:54:07.159Z,999.73
2018-10-01T01:55:07.181Z,999.78
2018-10-01T01:56:07.163Z,999.76
2018-10-01T01:57:07.118Z,999.72
2018-10-01T01:58:07.110Z,999.73
2018-10-01T01:59:07.091Z,999.72
2018-10-01T02:00:07.146Z,999.71
2018-10-01T02:01:07.060Z,999.68
2018-10-01T02:02:07.057Z,999.68
2018-10-01T02:03:07.033Z,999.68
2018-10-01T02:04:07.033Z,999.70
2018-10-01T02:05:07.009Z,999.70
2018-10-01T02:06:07.063Z,999.71
2018-10-01T02:07:06.987Z,999.72
2018-10-01T02:08:06.962Z,999.70
2018-10-01T02:09:06.951Z,999.71
2018-10-01T02:10:06.928Z,999.68
2018-10-01T02:11:06.912Z,999.68
2018-10-01T02:12:06.913Z,999.69
2018-10-01T02:13:06.884Z,999.69
2018-10-01T02:14:06.873Z,999.68
2018-10-01T02:15:06.851Z,999.65
2018-10-01T02:16:06.845Z,999.63
2018-10-01T02:17:06.835Z,999.67
2018-10-01T02:18:06.833Z,999.69
2018-10-01T02:19:06.802Z,999.73
2018-10-01T02:20:06.806Z,999.69
2018-10-01T02:21:06.772Z,999.71
2018-10-01T02:22:06.778Z,999.77
2018-10-01T02:23:06.748Z,999.78
2018-10-01T02:24:06.736Z,999.82
2018-10-01T02:25:06.708Z,999.80
2018-10-01T02:26:06.706Z,999.84
2018-10-01T02:27:06.717Z,999.82
2018-10-01T02:28:06.669Z,999.86
2018-10-01T02:29:06.651Z,999.92
2018-10-01T02:30:06.669Z,999.87
2018-10-01T02:31:06.626Z,999.87
2018-10-01T02:32:06.600Z,999.88
2018-10-01T02:33:06.598Z,999.83
2018-10-01T02:34:06.579Z,999.83
2018-10-01T02:35:06.573Z,999.82
2018-10-01T02:36:06.549Z,999.82
2018-10-01T02:37:06.544Z,999.83
2018-10-01T02:38:06.510Z,999.83
2018-10-01T02:39:06.533Z,999.84
2018-10-01T02:40:06.493Z,999.83
2018-10-01T02:41:06.605Z,999.89
2018-10-01T02:42:06.454Z,999.86
2018-10-01T02:43:06.442Z,999.84
2018-10-01T02:44:06.441Z,999.84
2018-10-01T02:45:06.408Z,999.79
2018-10-01T02:46:06.450Z,999.83
2018-10-01T02:47:06.402Z,999.85
2018-10-01T02:48:06.369Z,999.87
2018-10-01T02:49:06.380Z,999.83
2018-10-01T02:50:06.352Z,999.83
2018-10-01T02:51:06.527Z,999.83
2018-10-01T02:52:06.305Z,999.82
2018-10-01T02:53:06.296Z,999.82
2018-10-01T02:54:06.290Z,999.81
2018-10-01T02:55:06.267Z,999.80
2018-10-01T02:56:06.260Z,999.78
2018-10-01T02:57:06.247Z,999.76
2018-10-01T02:58:06.224Z,999.79
2018-10-01T02:59:06.212Z,999.79
2018-10-01T03:00:06.191Z,999.80
2018-10-01T03:01:06.185Z,999.84
2018-10-01T03:02:06.201Z,999.83
2018-10-01T03:03:06.158Z,999.79
2018-10-01T03:04:06.136Z,999.81
2018-10-01T03:05:06.124Z,999.78
2018-10-01T03:06:06.116Z,999.81
2018-10-01T03:07:06.365Z,999.82
2018-10-01T03:08:06.070Z,999.84
2018-10-01T03:09:06.060Z,999.85
2018-10-01T03:10:06.039Z,999.84
2018-10-01T03:11:06.032Z,999.82
2018-10-01T03:12:06.049Z,999.81
2018-10-01T03:13:06.066Z,999.84
2018-10-01T03:14:05.990Z,999.84
2018-10-01T03:15:05.978Z,999.85
2018-10-01T03:16:05.957Z,999.90
2018-10-01T03:17:05.944Z,999.86
2018-10-01T03:18:05.941Z,999.87
2018-10-01T03:19:05.916Z,999.84
2018-10-01T03:20:05.905Z,999.82
2018-10-01T03:21:05.928Z,999.83
2018-10-01T03:22:05.874Z,999.82
2018-10-01T03:23:05.855Z,999.83
2018-10-01T03:24:05.875Z,999.82
2018-10-01T03:25:05.828Z,999.86
2018-10-01T03:26:05.813Z,999.84
2018-10-01T03:27:05.792Z,999.78
2018-10-01T03:28:05.768Z,999.80
2018-10-01T03:29:05.792Z,999.76
2018-10-01T03:30:05.747Z,999.79
2018-10-01T03:31:05.729Z,999.80
2018-10-01T03:32:05.720Z,999.81
2018-10-01T03:33:05.700Z,999.81
2018-10-01T03:34:05.685Z,999.78
2018-10-01T03:35:05.707Z,999.84
2018-10-01T03:36:05.660Z,999.83
2018-10-01T03:37:05.656Z,999.81
2018-10-01T03:38:05.643Z,999.83
2018-10-01T03:39:05.616Z,999.81
2018-10-01T03:40:05.686Z,999.84
2018-10-01T03:41:05.590Z,999.90
2018-10-01T03:42:05.573Z,999.85
2018-10-01T03:43:05.555Z,999.86
2018-10-01T03:44:05.534Z,999.84
2018-10-01T03:45:05.527Z,999.84
2018-10-01T03:46:05.513Z,999.86
2018-10-01T03:47:05.496Z,999.85
2018-10-01T03:48:05.471Z,999.81
2018-10-01T03:49:05.471Z,999.80
2018-10-01T03:50:05.477Z,999.81
2018-10-01T03:51:05.428Z,999.84
2018-10-01T03:52:05.416Z,999.83
2018-10-01T03:53:05.456Z,999.80
2018-10-01T03:54:05.384Z,999.85
2018-10-01T03:55:05.369Z,999.85
2018-10-01T03:56:05.356Z,999.86
2018-10-01T03:57:05.343Z,999.80
2018-10-01T03:58:05.329Z,999.81
2018-10-01T03:59:05.355Z,999.80
2018-10-01T04:00:05.284Z,999.81
2018-10-01T04:01:05.280Z,999.83
2018-10-01T04:02:05.292Z,999.81
2018-10-01T04:03:05.332Z,999.78
2018-10-01T04:04:05.252Z,999.79
2018-10-01T04:05:05.214Z,999.79
2018-10-01T04:06:05.201Z,999.77
2018-10-01T04:07:05.190Z,999.81
2018-10-01T04:08:05.195Z,999.80
2018-10-01T04:09:05.185Z,999.78
2018-10-01T04:10:05.146Z,999.82
2018-10-01T04:11:05.126Z,999.80
2018-10-01T04:12:05.120Z,999.80
2018-10-01T04:13:05.092Z,999.81
2018-10-01T04:14:05.086Z,999.82
2018-10-01T04:15:05.091Z,999.83
2018-10-01T04:16:05.040Z,999.86
2018-10-01T04:17:05.037Z,999.85
2018-10-01T04:18:05.019Z,999.82
2018-10-01T04:19:05.009Z,999.81
2018-10-01T04:20:05.016Z,999.80
2018-10-01T04:21:04.977Z,999.76
2018-10-01T04:22:04.955Z,999.77
2018-10-01T04:23:04.940Z,999.78
2018-10-01T04:24:04.929Z,999.74
2018-10-01T04:25:04.940Z,999.77
2018-10-01T04:26:04.892Z,999.76
2018-10-01T04:27:04.879Z,999.80
2018-10-01T04:28:04.865Z,999.82
2018-10-01T04:29:04.841Z,999.81
2018-10-01T04:30:04.867Z,999.84
2018-10-01T04:31:04.813Z,999.87
2018-10-01T04:32:04.801Z,999.90
2018-10-01T04:33:04.811Z,999.92
2018-10-01T04:34:04.761Z,999.94
2018-10-01T04:35:04.752Z,999.94
2018-10-01T04:36:04.745Z,999.93
2018-10-01T04:37:04.717Z,999.96
2018-10-01T04:38:04.713Z,999.95
2018-10-01T04:39:04.697Z,999.99
2018-10-01T04:40:04.679Z,1000.00
2018-10-01T04:41:04.755Z,1000.02
2018-10-01T04:42:04.641Z,1000.06
2018-10-01T04:43:04.636Z,1000.04
2018-10-01T04:44:04.615Z,1000.05
2018-10-01T04:45:04.590Z,1000.00
2018-10-01T04:46:04.583Z,1000.04
2018-10-01T04:47:04.594Z,1000.03
2018-10-01T04:48:04.562Z,1000.09
2018-10-01T04:49:04.539Z,1000.09
2018-10-01T04:50:04.527Z,1000.08
2018-10-01T04:51:04.531Z,1000.09
2018-10-01T04:52:04.487Z,1000.09
2018-10-01T04:53:04.487Z,1000.09
2018-10-01T04:54:04.458Z,1000.09
2018-10-01T04:55:04.443Z,1000.12
2018-10-01T04:56:04.426Z,1000.13
2018-10-01T04:57:04.421Z,1000.16
2018-10-01T04:58:04.473Z,1000.12
2018-10-01T04:59:04.385Z,1000.14
2018-10-01T05:00:04.500Z,1000.10
2018-10-01T05:01:04.359Z,1000.12
2018-10-01T05:02:04.343Z,1000.15
2018-10-01T05:03:04.331Z,1000.13
2018-10-01T05:04:04.304Z,1000.18
2018-10-01T05:05:04.296Z,1000.20
2018-10-01T05:06:04.317Z,1000.17
2018-10-01T05:07:04.266Z,1000.15
2018-10-01T05:08:04.257Z,1000.18
2018-10-01T05:09:04.228Z,1000.19
2018-10-01T05:10:04.205Z,1000.17
2018-10-01T05:11:04.193Z,1000.22
2018-10-01T05:12:04.178Z,1000.17
2018-10-01T05:13:04.166Z,1000.16
2018-10-01T05:14:04.436Z,1000.21
2018-10-01T05:15:04.135Z,1000.18
2018-10-01T05:16:04.118Z,1000.20
2018-10-01T05:17:04.105Z,1000.19
2018-10-01T05:18:04.091Z,1000.20
2018-10-01T05:19:04.063Z,1000.20
2018-10-01T05:20:04.055Z,1000.23
2018-10-01T05:21:04.035Z,1000.26
2018-10-01T05:22:04.021Z,1000.25
2018-10-01T05:23:04.004Z,1000.29
2018-10-01T05:24:03.983Z,1000.24
2018-10-01T05:25:03.979Z,1000.28
2018-10-01T05:26:03.956Z,1000.26
2018-10-01T05:27:03.961Z,1000.27
2018-10-01T05:28:03.933Z,1000.27
2018-10-01T05:29:03.919Z,1000.30
2018-10-01T05:30:03.909Z,1000.25
2018-10-01T05:31:03.914Z,1000.26
2018-10-01T05:32:03.867Z,1000.23
2018-10-01T05:33:03.854Z,1000.31
2018-10-01T05:34:03.839Z,1000.34
2018-10-01T05:35:03.817Z,1000.32
2018-10-01T05:36:03.834Z,1000.34
2018-10-01T05:37:03.787Z,1000.37
2018-10-01T05:38:03.778Z,1000.37
2018-10-01T05:39:03.756Z,1000.41
2018-10-01T05:40:03.736Z,1000.40
2018-10-01T05:41:03.747Z,1000.39
2018-10-01T05:42:03.713Z,1000.42
2018-10-01T05:43:03.713Z,1000.45
2018-10-01T05:44:03.674Z,1000.46
2018-10-01T05:45:03.666Z,1000.42
2018-10-01T05:46:03.650Z,1000.44
2018-10-01T05:47:03.896Z,1000.48
2018-10-01T05:48:03.612Z,1000.50
2018-10-01T05:49:03.615Z,1000.53
2018-10-01T05:50:03.578Z,1000.53
2018-10-01T05:51:03.567Z,1000.49
2018-10-01T05:52:03.542Z,1000.47
2018-10-01T05:53:03.532Z,1000.47
2018-10-01T05:54:03.533Z,1000.47
2018-10-01T05:55:03.506Z,1000.45
2018-10-01T05:56:03.492Z,1000.45
2018-10-01T05:57:03.476Z,1000.46
2018-10-01T05:58:03.613Z,1000.47
2018-10-01T05:59:03.442Z,1000.46
2018-10-01T06:00:03.417Z,1000.53
2018-10-01T06:01:03.408Z,1000.52
2018-10-01T06:02:03.395Z,1000.56
2018-10-01T06:03:03.377Z,1000.56
2018-10-01T06:04:03.362Z,1000.65
2018-10-01T06:05:03.346Z,1000.67
2018-10-01T06:06:03.332Z,1000.68
2018-10-01T06:07:03.322Z,1000.67
2018-10-01T06:08:03.292Z,1000.69
2018-10-01T06:09:03.324Z,1000.72
2018-10-01T06:10:03.270Z,1000.75
2018-10-01T06:11:03.239Z,1000.80
2018-10-01T06:12:03.228Z,1000.79
2018-10-01T06:13:03.213Z,1000.78
2018-10-01T06:14:03.280Z,1000.81
2018-10-01T06:15:03.198Z,1000.81
2018-10-01T06:16:03.169Z,1000.83
2018-10-01T06:17:03.161Z,1000.88
2018-10-01T06:18:03.145Z,1000.86
2018-10-01T06:19:03.113Z,1000.84
2018-10-01T06:20:03.112Z,1000.88
2018-10-01T06:21:03.101Z,1000.90
2018-10-01T06:22:03.111Z,1000.93
2018-10-01T06:23:03.055Z,1000.94
2018-10-01T06:24:03.034Z,1000.95
2018-10-01T06:25:03.072Z,1000.98
2018-10-01T06:26:03.013Z,1001.03
2018-10-01T06:27:03.015Z,1000.98
2018-10-01T06:28:02.976Z,1001.03
2018-10-01T06:29:02.985Z,1001.03
2018-10-01T06:30:02.968Z,1001.05
2018-10-01T06:31:02.931Z,1001.02
2018-10-01T06:32:02.914Z,1001.01
2018-10-01T06:33:02.900Z,1001.06
2018-10-01T06:34:02.910Z,1001.07
2018-10-01T06:35:02.859Z,1001.10
2018-10-01T06:36:02.853Z,1001.14
2018-10-01T06:37:02.827Z,1001.10
2018-10-01T06:38:02.888Z,1001.13
2018-10-01T06:39:02.849Z,1001.08
2018-10-01T06:40:02.779Z,1001.13
2018-10-01T06:41:02.764Z,1001.14
2018-10-01T06:42:02.781Z,1001.18
2018-10-01T06:43:02.738Z,1001.18
2018-10-01T06:44:02.725Z,1001.26
2018-10-01T06:45:02.711Z,1001.25
2018-10-01T06:46:02.694Z,1001.20
2018-10-01T06:47:02.667Z,1001.18
2018-10-01T06:48:02.655Z,1001.17
2018-10-01T06:49:02.646Z,1001.20
2018-10-01T06:50:02.633Z,1001.15
2018-10-01T06:51:02.641Z,1001.19
2018-10-01T06:52:02.593Z,1001.17
2018-10-01T06:53:02.571Z,1001.17
2018-10-01T06:54:02.560Z,1001.16
2018-10-01T06:55:02.653Z,1001.20
2018-10-01T06:56:02.535Z,1001.16
2018-10-01T06:57:02.514Z,1001.18
2018-10-01T06:58:02.522Z,1001.19
2018-10-01T06:59:02.484Z,1001.18
2018-10-01T07:00:02.491Z,1001.18
2018-10-01T07:01:02.573Z,1001.21
2018-10-01T07:02:02.435Z,1001.16
2018-10-01T07:03:02.424Z,1001.21
2018-10-01T07:04:02.410Z,1001.18
2018-10-01T07:05:02.378Z,1001.21
2018-10-01T07:06:02.379Z,1001.17
2018-10-01T07:07:02.360Z,1001.15
2018-10-01T07:08:02.338Z,1001.21
2018-10-01T07:09:02.337Z,1001.20
2018-10-01T07:10:03.007Z,1001.19
2018-10-01T07:11:02.326Z,1001.16
2018-10-01T07:12:02.278Z,1001.20
2018-10-01T07:13:02.259Z,1001.21
2018-10-01T07:14:02.239Z,1001.24
2018-10-01T07:15:02.233Z,1001.27
2018-10-01T07:16:02.517Z,1001.23
2018-10-01T07:17:02.308Z,1001.25
2018-10-01T07:18:02.187Z,1001.23
2018-10-01T07:19:02.156Z,1001.30
2018-10-01T07:20:02.150Z,1001.30
2018-10-01T07:21:02.131Z,1001.32
2018-10-01T07:22:02.110Z,1001.28
2018-10-01T07:23:02.205Z,1001.28
2018-10-01T07:24:02.081Z,1001.31
2018-10-01T07:25:02.069Z,1001.28
2018-10-01T07:26:02.042Z,1001.34
2018-10-01T07:27:02.174Z,1001.35
2018-10-01T07:28:02.017Z,1001.31
2018-10-01T07:29:02.004Z,1001.37
2018-10-01T07:30:01.976Z,1001.39
2018-10-01T07:31:01.977Z,1001.36
2018-10-01T07:32:01.949Z,1001.37
2018-10-01T07:33:01.983Z,1001.35
2018-10-01T07:34:01.926Z,1001.38
2018-10-01T07:35:01.907Z,1001.36
2018-10-01T07:36:01.886Z,1001.36
2018-10-01T07:37:01.864Z,1001.40
2018-10-01T07:38:02.142Z,1001.43
2018-10-01T07:39:01.911Z,1001.45
2018-10-01T07:40:01.828Z,1001.45
2018-10-01T07:41:01.812Z,1001.37
2018-10-01T07:42:01.796Z,1001.40
2018-10-01T07:43:01.770Z,1001.42
2018-10-01T07:44:01.774Z,1001.42
2018-10-01T07:45:01.840Z,1001.46
2018-10-01T07:46:01.738Z,1001.44
2018-10-01T07:47:01.730Z,1001.47
2018-10-01T07:48:01.698Z,1001.47
2018-10-01T07:49:01.682Z,1001.46
2018-10-01T07:50:01.846Z,1001.47
2018-10-01T07:51:01.785Z,1001.50
2018-10-01T07:52:01.653Z,1001.45
2018-10-01T07:53:01.639Z,1001.49
2018-10-01T07:54:01.616Z,1001.45
2018-10-01T07:55:01.596Z,1001.48
2018-10-01T07:56:01.571Z,1001.47
2018-10-01T07:57:01.641Z,1001.46
2018-10-01T07:58:01.557Z,1001.49
2018-10-01T07:59:01.597Z,1001.48
2018-10-01T08:00:01.710Z,1001.48
2018-10-01T08:01:01.502Z,1001.52
2018-10-01T08:02:01.497Z,1001.47
2018-10-01T08:03:01.465Z,1001.46
2018-10-01T08:04:01.448Z,1001.50
2018-10-01T08:05:01.465Z,1001.45
2018-10-01T08:06:01.431Z,1001.50
2018-10-01T08:07:01.424Z,1001.51
2018-10-01T08:08:01.459Z,1001.47
2018-10-01T08:09:01.377Z,1001.53
2018-10-01T08:10:01.353Z,1001.56
2018-10-01T08:11:01.622Z,1001.58
2018-10-01T08:12:01.326Z,1001.66
2018-10-01T08:13:01.312Z,1001.60
2018-10-01T08:14:01.298Z,1001.60
2018-10-01T08:15:01.285Z,1001.64
2018-10-01T08:16:01.269Z,1001.72
2018-10-01T08:17:01.272Z,1001.68
2018-10-01T08:18:01.284Z,1001.75
2018-10-01T08:19:01.220Z,1001.70
2018-10-01T08:20:01.218Z,1001.69
2018-10-01T08:21:01.193Z,1001.71
2018-10-01T08:22:01.171Z,1001.77
2018-10-01T08:23:01.155Z,1001.76
2018-10-01T08:24:01.139Z,1001.80
2018-10-01T08:25:01.124Z,1001.73
2018-10-01T08:26:01.187Z,1001.72
2018-10-01T08:27:01.097Z,1001.78
2018-10-01T08:28:01.078Z,1001.82
2018-10-01T08:29:01.122Z,1001.79
2018-10-01T08:30:01.224Z,1001.80
2018-10-01T08:31:01.033Z,1001.77
2018-10-01T08:32:01.084Z,1001.82
2018-10-01T08:33:00.997Z,1001.79
2018-10-01T08:34:00.984Z,1001.78
2018-10-01T08:35:01.020Z,1001.85
2018-10-01T08:36:00.953Z,1001.88
2018-10-01T08:37:00.984Z,1001.87
2018-10-01T08:38:01.021Z,1001.87
2018-10-01T08:39:00.963Z,1001.91
2018-10-01T08:40:00.893Z,1001.92
2018-10-01T08:41:00.935Z,1001.95
2018-10-01T08:42:00.902Z,1001.88
2018-10-01T08:43:00.855Z,1001.85
2018-10-01T08:44:00.906Z,1001.82
2018-10-01T08:45:00.820Z,1001.91
2018-10-01T08:46:00.811Z,1001.94
2018-10-01T08:47:00.860Z,1002.07
2018-10-01T08:48:00.785Z,1002.08
2018-10-01T08:49:00.776Z,1002.03
2018-10-01T08:50:00.774Z,1002.05
2018-10-01T08:51:00.745Z,1002.02
2018-10-01T08:52:00.735Z,1002.03
2018-10-01T08:53:00.774Z,1002.01
2018-10-01T08:54:00.688Z,1002.05
2018-10-01T08:55:00.714Z,1002.05
2018-10-01T08:56:00.683Z,1002.07
2018-10-01T08:57:00.694Z,1002.09
2018-10-01T08:58:00.642Z,1002.12
2018-10-01T08:59:00.683Z,1002.10
2018-10-01T09:00:00.624Z,1002.09
2018-10-01T09:01:00.622Z,1002.12
2018-10-01T09:02:00.609Z,1002.08
2018-10-01T09:03:00.592Z,1002.16
2018-10-01T09:04:00.597Z,1002.12
2018-10-01T09:05:00.567Z,1002.09
2018-10-01T09:06:00.538Z,1002.13
2018-10-01T09:07:00.529Z,1002.14
2018-10-01T09:08:00.575Z,1002.15
2018-10-01T09:09:00.489Z,1002.14
2018-10-01T09:10:00.478Z,1002.08
2018-10-01T09:11:00.490Z,1002.13
2018-10-01T09:12:00.465Z,1002.20
2018-10-01T09:13:00.434Z,1002.16
2018-10-01T09:14:00.512Z,1002.16
2018-10-01T09:15:00.437Z,1002.20
2018-10-01T09:16:00.397Z,1002.13
2018-10-01T09:17:00.388Z,1002.23
2018-10-01T09:18:00.375Z,1002.17
2018-10-01T09:19:00.421Z,1002.20
2018-10-01T09:20:00.367Z,1002.21
2018-10-01T09:21:00.316Z,1002.19
2018-10-01T09:22:00.304Z,1002.22
2018-10-01T09:23:00.332Z,1002.18
2018-10-01T09:24:00.276Z,1002.18
2018-10-01T09:25:00.283Z,1002.22
2018-10-01T09:26:00.349Z,1002.21
2018-10-01T09:27:00.241Z,1002.14
2018-10-01T09:28:00.219Z,1002.16
2018-10-01T09:29:00.221Z,1002.21
2018-10-01T09:30:00.204Z,1002.15
2018-10-01T09:31:00.195Z,1002.18
2018-10-01T09:32:00.180Z,1002.16
2018-10-01T09:33:00.148Z,1002.18
2018-10-01T09:34:00.138Z,1002.22
2018-10-01T09:35:00.185Z,1002.15
2018-10-01T09:36:00.101Z,1002.16
2018-10-01T09:37:00.131Z,1002.15
2018-10-01T09:38:00.112Z,1002.21
2018-10-01T09:39:00.063Z,1002.13
2018-10-01T09:40:00.058Z,1002.13
2018-10-01T09:41:00.203Z,1002.14
2018-10-01T09:42:00.074Z,1002.18
2018-10-01T09:43:00.007Z,1002.20
2018-10-01T09:44:00.055Z,1002.15
2018-10-01T09:44:59.986Z,1002.15
2018-10-01T09:46:00.058Z,1002.14
2018-10-01T09:46:59.961Z,1002.17
2018-10-01T09:47:59.987Z,1002.15
2018-10-01T09:48:59.929Z,1002.15
2018-10-01T09:50:00.029Z,1002.19
2018-10-01T09:50:59.897Z,1002.21
2018-10-01T09:51:59.914Z,1002.15
2018-10-01T09:52:59.899Z,1002.19
2018-10-01T09:54:00.119Z,1002.18
2018-10-01T09:54:59.849Z,1002.21
2018-10-01T09:55:59.830Z,1002.15
2018-10-01T09:56:59.813Z,1002.15
2018-10-01T09:57:59.833Z,1002.04
2018-10-01T09:58:59.791Z,1002.18
2018-10-01T09:59:59.780Z,1002.16
2018-10-01T10:00:59.748Z,1002.18
2018-10-01T10:01:59.776Z,1002.11
2018-10-01T10:02:59.735Z,1002.13
2018-10-01T10:03:59.745Z,1002.11
2018-10-01T10:04:59.779Z,1002.12
2018-10-01T10:05:59.683Z,1002.09
2018-10-01T10:06:59.672Z,1002.16
2018-10-01T10:07:59.722Z,1002.16
2018-10-01T10:08:59.649Z,1002.17
2018-10-01T10:09:59.941Z,1002.15
2018-10-01T10:10:59.664Z,1002.20
2018-10-01T10:11:59.631Z,1002.16
2018-10-01T10:12:59.591Z,1002.19
2018-10-01T10:13:59.628Z,1002.15
2018-10-01T10:14:59.607Z,1002.09
2018-10-01T10:15:59.633Z,1002.19
2018-10-01T10:16:59.564Z,1002.18
2018-10-01T10:17:59.568Z,1002.19
2018-10-01T10:18:59.515Z,1002.17
2018-10-01T10:19:59.617Z,1002.10
2018-10-01T10:20:59.711Z,1002.13
2018-10-01T10:21:59.517Z,1002.14
2018-10-01T10:22:59.462Z,1002.17
2018-10-01T10:23:59.434Z,1002.13
2018-10-01T10:24:59.431Z,1002.18
2018-10-01T10:25:59.426Z,1002.16
2018-10-01T10:26:59.434Z,1002.15
2018-10-01T10:27:59.425Z,1002.20
2018-10-01T10:28:59.374Z,1002.22
2018-10-01T10:29:59.369Z,1002.23
2018-10-01T10:30:59.372Z,1002.29
2018-10-01T10:31:59.381Z,1002.30
2018-10-01T10:32:59.312Z,1002.29
2018-10-01T10:33:59.322Z,1002.29
2018-10-01T10:34:59.284Z,1002.25
2018-10-01T10:35:59.544Z,1002.20
2018-10-01T10:36:59.264Z,1002.31
2018-10-01T10:37:59.287Z,1002.27
2018-10-01T10:38:59.248Z,1002.24
2018-10-01T10:39:59.232Z,1002.16
2018-10-01T10:40:59.211Z,1002.22
2018-10-01T10:41:59.215Z,1002.20
2018-10-01T10:42:59.221Z,1002.17
2018-10-01T10:43:59.224Z,1002.19
2018-10-01T10:44:59.162Z,1002.13
2018-10-01T10:45:59.130Z,1002.23
2018-10-01T10:46:59.220Z,1002.28
2018-10-01T10:47:59.151Z,1002.23
2018-10-01T10:48:59.110Z,1002.26
2018-10-01T10:49:59.126Z,1002.31
2018-10-01T10:50:59.079Z,1002.34
2018-10-01T10:51:59.046Z,1002.33
2018-10-01T10:52:59.070Z,1002.36
2018-10-01T10:53:59.057Z,1002.40
2018-10-01T10:54:59.023Z,1002.39
2018-10-01T10:55:59.004Z,1002.39
2018-10-01T10:56:58.997Z,1002.37
2018-10-01T10:57:58.971Z,1002.38
2018-10-01T10:58:58.964Z,1002.40
2018-10-01T10:59:58.954Z,1002.37
2018-10-01T11:00:58.926Z,1002.44
2018-10-01T11:01:58.935Z,1002.46
2018-10-01T11:02:58.910Z,1002.44
2018-10-01T11:03:59.174Z,1002.53
2018-10-01T11:04:58.876Z,1002.56
2018-10-01T11:05:58.858Z,1002.57
2018-10-01T11:06:58.859Z,1002.53
2018-10-01T11:07:58.868Z,1002.54
2018-10-01T11:08:58.823Z,1002.55
2018-10-01T11:09:58.848Z,1002.55
2018-10-01T11:10:58.789Z,1002.59
2018-10-01T11:11:58.784Z,1002.56
2018-10-01T11:12:58.770Z,1002.63
2018-10-01T11:13:58.831Z,1002.59
2018-10-01T11:14:58.948Z,1002.58
2018-10-01T11:15:58.716Z,1002.65
2018-10-01T11:16:58.718Z,1002.72
2018-10-01T11:17:58.695Z,1002.68
2018-10-01T11:18:58.854Z,1002.68
2018-10-01T11:19:58.785Z,1002.73
2018-10-01T11:20:58.753Z,1002.73
2018-10-01T11:21:58.738Z,1002.78
2018-10-01T11:22:58.757Z,1002.80
2018-10-01T11:23:58.628Z,1002.71
2018-10-01T11:24:58.657Z,1002.81
2018-10-01T11:25:58.578Z,1002.85
2018-10-01T11:26:58.652Z,1002.90
2018-10-01T11:27:58.563Z,1002.87
2018-10-01T11:28:58.626Z,1002.89
2018-10-01T11:29:58.529Z,1002.85
2018-10-01T11:30:58.581Z,1002.94
2018-10-01T11:31:58.516Z,1002.89
2018-10-01T11:32:58.496Z,1002.91
2018-10-01T11:33:58.488Z,1002.87
2018-10-01T11:34:58.538Z,1003.03
2018-10-01T11:35:58.438Z,1002.98
2018-10-01T11:36:58.434Z,1003.05
2018-10-01T11:37:58.414Z,1003.00
2018-10-01T11:38:58.476Z,1002.99
2018-10-01T11:39:58.405Z,1003.05
2018-10-01T11:40:58.647Z,1003.08
2018-10-01T11:41:58.356Z,1003.15
2018-10-01T11:42:58.345Z,1003.21
2018-10-01T11:43:58.339Z,1003.20
2018-10-01T11:44:58.375Z,1003.16
2018-10-01T11:45:58.305Z,1003.22
2018-10-01T11:46:58.318Z,1003.23
2018-10-01T11:47:58.270Z,1003.21
2018-10-01T11:48:58.257Z,1003.26
2018-10-01T11:49:58.243Z,1003.20
2018-10-01T11:50:58.299Z,1003.17
2018-10-01T11:51:58.256Z,1003.17
2018-10-01T11:52:58.202Z,1003.28
2018-10-01T11:53:58.177Z,1003.33
2018-10-01T11:54:58.173Z,1003.29
2018-10-01T11:55:58.163Z,1003.39
2018-10-01T11:56:58.138Z,1003.36
2018-10-01T11:57:58.244Z,1003.36
2018-10-01T11:58:58.097Z,1003.38
2018-10-01T11:59:58.091Z,1003.34
2018-10-01T12:00:58.074Z,1003.39
2018-10-01T12:01:58.060Z,1003.38
2018-10-01T12:02:58.095Z,1003.33
2018-10-01T12:03:58.101Z,1003.34
2018-10-01T12:04:58.014Z,1003.32
2018-10-01T12:05:57.988Z,1003.36
2018-10-01T12:06:57.978Z,1003.37
2018-10-01T12:07:57.964Z,1003.25
2018-10-01T12:08:58.288Z,1003.37
2018-10-01T12:09:58.046Z,1003.31
2018-10-01T12:10:57.929Z,1003.26
2018-10-01T12:11:57.911Z,1003.25
2018-10-01T12:12:57.882Z,1003.29